Time;durP1;ratioP1;P1;durP2;ratioP2;P2;SDS_P1;SDS_P2;PMS_P1;PMS_P2;Temp;Humidity;BMP_temperature;BMP_pressure;BME280_temperature;BME280_humidity;BME280_pressure;Samples;Min_cycle;Max_cycle;Signal;HPM_P1;HPM_P2
2023/08/17 00:00:14;;;;;;;;;;;24.20;85.60;;;;;;5078209;28;19976;-78
2023/08/17 00:02:41;;;;;;;;;;;24.10;85.60;;;;;;5071209;28;19979;-78
2023/08/17 00:05:08;;;;;;;;;;;24.10;85.70;;;;;;5073926;28;20117;-79
2023/08/17 00:07:35;;;;;;;;;;;24.10;85.70;;;;;;5073176;28;19988;-78
2023/08/17 00:10:02;;;;;;;;;;;24.00;85.70;;;;;;5071790;28;20034;-79
2023/08/17 00:12:30;;;;;;;;;;;24.00;85.80;;;;;;5073012;28;20599;-78
2023/08/17 00:14:57;;;;;;;;;;;24.00;85.80;;;;;;5073339;28;20010;-79
2023/08/17 00:17:23;;;;;;;;;;;24.00;85.90;;;;;;5072523;28;20379;-78
2023/08/17 00:19:50;;;;;;;;;;;23.90;85.80;;;;;;5071112;28;19975;-78
2023/08/17 00:22:17;;;;;;;;;;;23.90;85.90;;;;;;5068626;28;19995;-77
2023/08/17 00:24:44;;;;;;;;;;;23.90;85.90;;;;;;5068914;28;19976;-78
2023/08/17 00:27:11;;;;;;;;;;;23.80;85.90;;;;;;5059107;28;19976;-78
2023/08/17 00:29:39;;;;;;;;;;;23.80;86.00;;;;;;5074969;28;20002;-78
2023/08/17 00:32:06;;;;;;;;;;;23.80;86.10;;;;;;5076395;28;20003;-78
2023/08/17 00:34:32;;;;;;;;;;;23.80;86.10;;;;;;5072631;28;20002;-78
2023/08/17 00:36:59;;;;;;;;;;;23.80;86.10;;;;;;5070537;28;19976;-78
2023/08/17 00:39:25;;;;;;;;;;;23.70;86.10;;;;;;5073019;28;19984;-78
2023/08/17 00:41:52;;;;;;;;;;;23.70;86.10;;;;;;5072424;28;21066;-78
2023/08/17 00:44:19;;;;;;;;;;;23.60;86.10;;;;;;5073972;28;19975;-79
2023/08/17 00:46:46;;;;;;;;;;;23.60;86.10;;;;;;5072832;28;19998;-77
2023/08/17 00:49:13;;;;;;;;;;;23.60;86.20;;;;;;5070115;28;19998;-77
2023/08/17 00:51:40;;;;;;;;;;;23.60;86.20;;;;;;5062607;28;20034;-77
2023/08/17 00:54:06;;;;;;;;;;;23.50;86.30;;;;;;5063580;28;19980;-77
2023/08/17 00:56:33;;;;;;;;;;;23.60;86.40;;;;;;5066487;28;19982;-78
2023/08/17 00:59:00;;;;;;;;;;;23.50;86.30;;;;;;5068236;28;19975;-78
2023/08/17 01:01:26;;;;;;;;;;;23.50;86.40;;;;;;5064747;28;20813;-78
2023/08/17 01:03:54;;;;;;;;;;;23.40;86.30;;;;;;5060334;28;19975;-78
2023/08/17 01:06:21;;;;;;;;;;;23.40;86.50;;;;;;5064358;28;19983;-78
2023/08/17 01:08:47;;;;;;;;;;;23.40;86.50;;;;;;5061924;28;19965;-78
2023/08/17 01:11:19;;;;;;;;;;;23.40;86.50;;;;;;5066219;28;19928;-77
2023/08/17 01:13:48;;;;;;;;;;;23.30;86.60;;;;;;5066954;28;19940;-78
2023/08/17 01:16:16;;;;;;;;;;;23.30;86.60;;;;;;5069620;28;19935;-78
2023/08/17 01:18:43;;;;;;;;;;;23.30;86.70;;;;;;5069482;28;19939;-78
2023/08/17 01:21:14;;;;;;;;;;;23.20;86.60;;;;;;5067550;28;20332;-78
2023/08/17 01:23:42;;;;;;;;;;;23.30;86.70;;;;;;5066208;28;20335;-77
2023/08/17 01:26:09;;;;;;;;;;;23.20;87.40;;;;;;5065281;28;19935;-78
2023/08/17 01:28:35;;;;;;;;;;;23.20;86.70;;;;;;5065370;28;20075;-78
2023/08/17 01:31:06;;;;;;;;;;;23.20;86.70;;;;;;5064483;28;19935;-77
2023/08/17 01:33:35;;;;;;;;;;;23.20;86.80;;;;;;5065214;28;19935;-78
2023/08/17 01:36:06;;;;;;;;;;;23.10;86.70;;;;;;5066924;28;20020;-78
2023/08/17 01:38:33;;;;;;;;;;;23.10;86.80;;;;;;5066118;28;19940;-77
2023/08/17 01:41:01;;;;;;;;;;;23.10;86.80;;;;;;5057612;28;20404;-78
2023/08/17 01:43:29;;;;;;;;;;;23.00;86.80;;;;;;5062880;28;19929;-78
2023/08/17 01:45:55;;;;;;;;;;;23.00;86.90;;;;;;5065079;28;20333;-78
2023/08/17 01:48:22;;;;;;;;;;;23.00;86.90;;;;;;5068356;28;20615;-78
2023/08/17 01:50:48;;;;;;;;;;;23.00;86.90;;;;;;5064915;28;19924;-77
2023/08/17 01:53:15;;;;;;;;;;;23.00;87.00;;;;;;5068170;28;19935;-77
2023/08/17 01:55:41;;;;;;;;;;;22.90;87.00;;;;;;5068339;28;19925;-78
2023/08/17 01:58:09;;;;;;;;;;;22.90;87.00;;;;;;5063763;28;19929;-79
2023/08/17 02:00:36;;;;;;;;;;;22.90;87.10;;;;;;5067015;28;19935;-78
2023/08/17 02:03:02;;;;;;;;;;;22.90;87.10;;;;;;5064954;28;19933;-78
2023/08/17 02:05:29;;;;;;;;;;;22.80;87.10;;;;;;5065404;28;19932;-78
2023/08/17 02:07:56;;;;;;;;;;;22.80;87.10;;;;;;5063313;28;19938;-78
2023/08/17 02:10:22;;;;;;;;;;;22.70;87.10;;;;;;5064213;28;20396;-78
2023/08/17 02:12:49;;;;;;;;;;;22.70;87.20;;;;;;5064198;28;19932;-78
2023/08/17 02:15:16;;;;;;;;;;;22.70;87.20;;;;;;5061196;28;19935;-77
2023/08/17 02:17:43;;;;;;;;;;;22.70;87.30;;;;;;5062092;28;19932;-78
2023/08/17 02:20:10;;;;;;;;;;;22.60;87.20;;;;;;5060736;28;19929;-78
2023/08/17 02:22:37;;;;;;;;;;;22.60;87.30;;;;;;5065974;28;19935;-78
2023/08/17 02:25:04;;;;;;;;;;;22.60;87.30;;;;;;5069217;28;19928;-77
2023/08/17 02:27:30;;;;;;;;;;;22.60;87.40;;;;;;5068532;28;20011;-78
2023/08/17 02:29:57;;;;;;;;;;;22.60;87.40;;;;;;5068746;28;19928;-77
2023/08/17 02:32:25;;;;;;;;;;;22.50;87.40;;;;;;5069041;28;19936;-78
2023/08/17 02:34:52;;;;;;;;;;;22.50;87.40;;;;;;5068262;28;19936;-78
2023/08/17 02:37:18;;;;;;;;;;;22.50;88.20;;;;;;5071131;28;19940;-78
2023/08/17 02:39:47;;;;;;;;;;;22.50;87.50;;;;;;5069902;28;20708;-77
2023/08/17 02:45:17;;;;;;;;;;;22.40;87.50;;;;;;5065091;28;19942;-77
2023/08/17 02:47:45;;;;;;;;;;;22.40;87.60;;;;;;5063754;28;19940;-77
2023/08/17 02:50:12;;;;;;;;;;;22.40;87.60;;;;;;5069685;28;20277;-77
2023/08/17 02:52:38;;;;;;;;;;;22.30;87.60;;;;;;5069407;28;19936;-78
2023/08/17 02:55:06;;;;;;;;;;;22.30;87.70;;;;;;5070423;28;20557;-77
2023/08/17 02:57:32;;;;;;;;;;;22.30;87.80;;;;;;5067751;28;19935;-77
2023/08/17 02:59:59;;;;;;;;;;;22.30;87.80;;;;;;5070868;28;20548;-78
2023/08/17 03:02:25;;;;;;;;;;;22.30;87.80;;;;;;5059959;28;21973;-78
2023/08/17 03:04:53;;;;;;;;;;;22.30;87.90;;;;;;5068272;28;19939;-77
2023/08/17 03:07:20;;;;;;;;;;;22.30;87.90;;;;;;5067001;28;19943;-78
2023/08/17 03:09:46;;;;;;;;;;;22.20;87.90;;;;;;5067922;28;19929;-77
2023/08/17 03:12:13;;;;;;;;;;;22.20;88.00;;;;;;5064487;28;19939;-77
2023/08/17 03:14:39;;;;;;;;;;;22.20;88.00;;;;;;5061887;28;19932;-78
2023/08/17 03:17:06;;;;;;;;;;;22.20;88.40;;;;;;5071389;28;19991;-78
2023/08/17 03:19:32;;;;;;;;;;;22.10;88.00;;;;;;5071801;28;20638;-78
2023/08/17 03:22:00;;;;;;;;;;;22.10;88.00;;;;;;5069142;28;19958;-78
2023/08/17 03:24:27;;;;;;;;;;;22.10;88.10;;;;;;5070357;28;19943;-77
2023/08/17 03:26:53;;;;;;;;;;;22.10;88.10;;;;;;5069981;28;19939;-77
2023/08/17 03:29:20;;;;;;;;;;;22.00;88.10;;;;;;5073315;28;19928;-78
2023/08/17 03:31:47;;;;;;;;;;;22.00;88.20;;;;;;5067537;28;20658;-77
2023/08/17 03:34:13;;;;;;;;;;;22.00;88.20;;;;;;5070283;28;19951;-77
2023/08/17 03:36:40;;;;;;;;;;;21.90;88.30;;;;;;5068781;28;19954;-77
2023/08/17 03:39:07;;;;;;;;;;;22.00;88.30;;;;;;5072660;28;19935;-78
2023/08/17 03:41:36;;;;;;;;;;;21.90;88.30;;;;;;5069714;28;19936;-77
2023/08/17 03:44:03;;;;;;;;;;;21.90;88.40;;;;;;5073661;28;19928;-78
2023/08/17 03:46:30;;;;;;;;;;;21.90;88.50;;;;;;5063439;28;19928;-77
2023/08/17 03:48:56;;;;;;;;;;;21.90;88.50;;;;;;5052557;28;19932;-77
2023/08/17 03:51:23;;;;;;;;;;;21.90;88.50;;;;;;5053643;28;19928;-77
2023/08/17 03:53:49;;;;;;;;;;;21.80;88.50;;;;;;5054570;28;19950;-78
2023/08/17 03:56:17;;;;;;;;;;;21.80;88.50;;;;;;5053734;28;19947;-78
2023/08/17 03:58:44;;;;;;;;;;;21.80;88.60;;;;;;5052801;28;19928;-78
2023/08/17 04:01:11;;;;;;;;;;;21.70;88.50;;;;;;5054057;28;20076;-78
2023/08/17 04:03:37;;;;;;;;;;;21.80;88.60;;;;;;5053697;28;20415;-79
2023/08/17 04:06:09;;;;;;;;;;;21.80;88.60;;;;;;5052701;28;19932;-78
2023/08/17 04:08:36;;;;;;;;;;;21.70;88.60;;;;;;5053938;28;19932;-77
2023/08/17 04:11:03;;;;;;;;;;;21.70;88.70;;;;;;5053283;28;19963;-77
2023/08/17 04:13:30;;;;;;;;;;;21.70;88.70;;;;;;5054348;28;19932;-78
2023/08/17 04:15:57;;;;;;;;;;;21.70;88.80;;;;;;5051690;28;19970;-78
2023/08/17 04:18:23;;;;;;;;;;;21.60;88.70;;;;;;5052254;28;19928;-77
2023/08/17 04:20:50;;;;;;;;;;;21.60;88.80;;;;;;5050780;28;20444;-78
2023/08/17 04:23:17;;;;;;;;;;;21.60;88.80;;;;;;5048683;28;19951;-77
2023/08/17 04:25:44;;;;;;;;;;;21.60;88.80;;;;;;5052088;28;19965;-78
2023/08/17 04:28:11;;;;;;;;;;;21.60;88.90;;;;;;5050949;28;19964;-77
2023/08/17 04:30:39;;;;;;;;;;;21.50;88.80;;;;;;5047060;28;19939;-77
2023/08/17 04:33:07;;;;;;;;;;;21.50;88.90;;;;;;5048139;28;19929;-77
2023/08/17 04:35:34;;;;;;;;;;;21.50;88.90;;;;;;5050508;28;20603;-77
2023/08/17 04:38:00;;;;;;;;;;;21.50;89.00;;;;;;5051720;28;20463;-77
2023/08/17 04:40:27;;;;;;;;;;;21.50;89.00;;;;;;5048343;28;19936;-78
2023/08/17 04:42:53;;;;;;;;;;;21.50;89.10;;;;;;5049714;28;19935;-77
2023/08/17 04:45:20;;;;;;;;;;;21.50;89.00;;;;;;5045712;28;19940;-78
2023/08/17 04:47:48;;;;;;;;;;;21.40;89.00;;;;;;5061863;28;19928;-77
2023/08/17 04:50:16;;;;;;;;;;;21.40;89.10;;;;;;5064476;28;19928;-77
2023/08/17 04:52:42;;;;;;;;;;;21.40;89.10;;;;;;5056940;28;19928;-77
2023/08/17 04:55:09;;;;;;;;;;;21.40;89.20;;;;;;5061734;28;20558;-76
2023/08/17 04:57:35;;;;;;;;;;;21.40;89.20;;;;;;5061768;28;19935;-77
2023/08/17 05:00:03;;;;;;;;;;;21.40;89.30;;;;;;5066070;28;19928;-77
2023/08/17 05:02:30;;;;;;;;;;;21.30;89.30;;;;;;5060268;28;19992;-77
2023/08/17 05:04:58;;;;;;;;;;;21.40;89.40;;;;;;5064302;28;19932;-78
2023/08/17 05:07:25;;;;;;;;;;;21.30;89.40;;;;;;5065474;28;20419;-77
2023/08/17 05:09:51;;;;;;;;;;;21.30;89.40;;;;;;5065194;28;19944;-77
2023/08/17 05:12:18;;;;;;;;;;;21.20;89.40;;;;;;5066175;28;19929;-78
2023/08/17 05:14:44;;;;;;;;;;;21.30;89.50;;;;;;5062876;28;19932;-78
2023/08/17 05:17:11;;;;;;;;;;;21.30;89.50;;;;;;5059422;28;19936;-77
2023/08/17 05:19:39;;;;;;;;;;;21.20;90.00;;;;;;5060552;28;20381;-78
2023/08/17 05:22:10;;;;;;;;;;;21.10;90.30;;;;;;5059739;28;19935;-78
2023/08/17 05:24:37;;;;;;;;;;;21.10;90.40;;;;;;5061256;28;19935;-79
2023/08/17 05:27:04;;;;;;;;;;;21.00;90.40;;;;;;5060634;28;20376;-79
2023/08/17 05:29:32;;;;;;;;;;;21.00;90.50;;;;;;5059450;28;19928;-79
2023/08/17 05:31:58;;;;;;;;;;;21.00;90.50;;;;;;5057874;28;20297;-79
2023/08/17 05:34:25;;;;;;;;;;;21.00;90.50;;;;;;5058231;28;20588;-79
2023/08/17 05:36:51;;;;;;;;;;;21.00;90.50;;;;;;5062817;28;20028;-78
2023/08/17 05:39:19;;;;;;;;;;;21.00;90.50;;;;;;5058944;28;19936;-78
2023/08/17 05:41:46;;;;;;;;;;;21.00;90.50;;;;;;5059651;28;20422;-78
2023/08/17 05:44:14;;;;;;;;;;;21.00;90.50;;;;;;5062920;28;19966;-78
2023/08/17 05:46:40;;;;;;;;;;;21.00;90.50;;;;;;5062122;28;19929;-78
2023/08/17 05:49:07;;;;;;;;;;;21.00;90.50;;;;;;5063397;28;19975;-78
2023/08/17 05:51:33;;;;;;;;;;;21.00;90.50;;;;;;5061558;28;19925;-78
2023/08/17 05:54:00;;;;;;;;;;;21.00;90.50;;;;;;5060354;28;19937;-79
2023/08/17 05:56:28;;;;;;;;;;;21.00;90.60;;;;;;5062289;28;19932;-79
2023/08/17 05:58:54;;;;;;;;;;;21.00;90.60;;;;;;5063864;28;20015;-77
2023/08/17 06:01:21;;;;;;;;;;;21.00;90.60;;;;;;5060393;28;20479;-78
2023/08/17 06:03:47;;;;;;;;;;;21.00;90.60;;;;;;5063912;28;19936;-77
2023/08/17 06:06:14;;;;;;;;;;;21.00;90.60;;;;;;5059654;28;19933;-79
2023/08/17 06:08:40;;;;;;;;;;;21.00;90.70;;;;;;5063439;28;19936;-78
2023/08/17 06:11:07;;;;;;;;;;;21.00;90.70;;;;;;5054642;28;20312;-79
2023/08/17 06:13:36;;;;;;;;;;;21.00;90.60;;;;;;5062772;28;19939;-79
2023/08/17 06:16:02;;;;;;;;;;;21.00;90.70;;;;;;5062897;28;20095;-79
2023/08/17 06:18:30;;;;;;;;;;;21.00;90.70;;;;;;5059958;28;19936;-79
2023/08/17 06:20:56;;;;;;;;;;;21.00;90.70;;;;;;5063674;28;19924;-78
2023/08/17 06:23:23;;;;;;;;;;;21.00;90.70;;;;;;5060129;28;19928;-79
2023/08/17 06:25:49;;;;;;;;;;;21.00;90.70;;;;;;5059093;28;19932;-78
2023/08/17 06:28:16;;;;;;;;;;;21.00;90.80;;;;;;5065462;28;20650;-77
2023/08/17 06:30:44;;;;;;;;;;;21.00;90.80;;;;;;5059031;28;19928;-79
2023/08/17 06:33:10;;;;;;;;;;;21.00;90.80;;;;;;5062303;28;19932;-76
2023/08/17 06:35:37;;;;;;;;;;;21.00;90.80;;;;;;5060328;28;19928;-78
2023/08/17 06:38:03;;;;;;;;;;;21.00;90.80;;;;;;5060977;28;19935;-79
2023/08/17 06:40:30;;;;;;;;;;;21.00;90.80;;;;;;5057028;28;19943;-79
2023/08/17 06:42:57;;;;;;;;;;;21.10;90.90;;;;;;5059506;28;19932;-78
2023/08/17 06:45:23;;;;;;;;;;;21.10;90.90;;;;;;5059522;28;19928;-80
2023/08/17 06:47:51;;;;;;;;;;;21.00;90.90;;;;;;5059441;28;20267;-79
2023/08/17 06:50:17;;;;;;;;;;;21.00;90.90;;;;;;5060842;28;19936;-79
2023/08/17 06:52:44;;;;;;;;;;;21.10;90.90;;;;;;5057508;28;19932;-78
2023/08/17 06:55:11;;;;;;;;;;;21.10;90.90;;;;;;5058689;28;20520;-79
2023/08/17 06:57:37;;;;;;;;;;;21.00;90.90;;;;;;5059083;28;20802;-78
2023/08/17 07:00:05;;;;;;;;;;;21.10;91.00;;;;;;5060949;28;19928;-80
2023/08/17 07:02:32;;;;;;;;;;;21.10;91.00;;;;;;5057833;28;19939;-80
2023/08/17 07:05:00;;;;;;;;;;;21.10;91.00;;;;;;5061544;28;19936;-79
2023/08/17 07:07:26;;;;;;;;;;;21.10;91.00;;;;;;5061551;28;19939;-78
2023/08/17 07:09:53;;;;;;;;;;;21.10;91.00;;;;;;5064036;28;19970;-79
2023/08/17 07:12:19;;;;;;;;;;;21.10;91.00;;;;;;5058505;28;19933;-77
2023/08/17 07:14:46;;;;;;;;;;;21.10;91.10;;;;;;5064611;28;20710;-80
2023/08/17 07:17:12;;;;;;;;;;;21.10;91.00;;;;;;5063591;28;20416;-79
2023/08/17 07:19:39;;;;;;;;;;;21.10;91.00;;;;;;5062347;28;19928;-79
2023/08/17 07:22:07;;;;;;;;;;;21.10;91.00;;;;;;5060654;28;19934;-79
2023/08/17 07:24:33;;;;;;;;;;;21.10;91.00;;;;;;5061144;28;19939;-79
2023/08/17 07:27:00;;;;;;;;;;;21.10;91.00;;;;;;5061936;28;19943;-79
2023/08/17 07:29:26;;;;;;;;;;;21.10;91.10;;;;;;5060761;28;19932;-79
2023/08/17 07:31:54;;;;;;;;;;;21.10;91.10;;;;;;5057843;28;19963;-79
2023/08/17 07:34:20;;;;;;;;;;;21.20;91.10;;;;;;5059839;28;20153;-80
2023/08/17 07:36:47;;;;;;;;;;;21.20;91.10;;;;;;5061867;28;19933;-78
2023/08/17 07:39:15;;;;;;;;;;;21.20;91.20;;;;;;5061643;28;19929;-79
2023/08/17 07:41:41;;;;;;;;;;;21.20;91.20;;;;;;5057363;28;19929;-78
2023/08/17 07:44:08;;;;;;;;;;;21.20;91.20;;;;;;5063341;28;19929;-78
2023/08/17 07:46:34;;;;;;;;;;;21.20;91.20;;;;;;5058860;28;19928;-79
2023/08/17 07:49:01;;;;;;;;;;;21.20;91.30;;;;;;5061710;28;19929;-79
2023/08/17 07:51:29;;;;;;;;;;;21.30;91.30;;;;;;5062276;28;20648;-79
2023/08/17 07:53:56;;;;;;;;;;;21.20;91.20;;;;;;5062022;28;20011;-79
2023/08/17 07:56:24;;;;;;;;;;;21.30;91.30;;;;;;5061471;28;20431;-80
2023/08/17 07:58:50;;;;;;;;;;;21.30;91.30;;;;;;5060022;28;19939;-78
2023/08/17 08:01:18;;;;;;;;;;;21.30;91.40;;;;;;5055925;28;20301;-80
2023/08/17 08:03:44;;;;;;;;;;;21.30;91.40;;;;;;5062487;28;19928;-79
2023/08/17 08:06:11;;;;;;;;;;;21.30;91.40;;;;;;5061172;28;19932;-79
2023/08/17 08:08:37;;;;;;;;;;;21.30;91.40;;;;;;5063714;28;19929;-79
2023/08/17 08:11:05;;;;;;;;;;;21.30;91.50;;;;;;5059872;28;19936;-80
2023/08/17 08:13:33;;;;;;;;;;;21.30;91.60;;;;;;5060959;28;20043;-80
2023/08/17 08:15:59;;;;;;;;;;;21.40;91.60;;;;;;5056846;28;19932;-80
2023/08/17 08:18:26;;;;;;;;;;;21.40;91.60;;;;;;5060943;28;19965;-80
2023/08/17 08:20:52;;;;;;;;;;;21.30;91.60;;;;;;5061926;28;19935;-78
2023/08/17 08:23:19;;;;;;;;;;;21.40;91.60;;;;;;5061878;28;19940;-80
2023/08/17 08:25:45;;;;;;;;;;;21.40;91.60;;;;;;5058873;28;19928;-78
2023/08/17 08:28:12;;;;;;;;;;;21.40;91.50;;;;;;5058776;28;19938;-78
2023/08/17 08:30:40;;;;;;;;;;;21.40;91.60;;;;;;5058778;28;20219;-78
2023/08/17 08:33:06;;;;;;;;;;;21.40;91.60;;;;;;5059816;28;19977;-79
2023/08/17 08:35:33;;;;;;;;;;;21.40;91.60;;;;;;5058341;28;19963;-79
2023/08/17 08:37:59;;;;;;;;;;;21.50;91.60;;;;;;5060092;28;19948;-80
2023/08/17 08:40:28;;;;;;;;;;;21.50;91.60;;;;;;5057753;28;20408;-80
2023/08/17 08:42:54;;;;;;;;;;;21.50;91.60;;;;;;5058573;28;20225;-80
2023/08/17 08:45:22;;;;;;;;;;;21.50;91.50;;;;;;5057558;28;20112;-79
2023/08/17 08:47:50;;;;;;;;;;;21.50;91.50;;;;;;5054812;28;20452;-79
2023/08/17 08:50:18;;;;;;;;;;;21.50;91.50;;;;;;5060408;28;19928;-80
2023/08/17 08:52:47;;;;;;;;;;;21.50;91.50;;;;;;5059527;28;19924;-78
2023/08/17 08:55:18;;;;;;;;;;;21.60;91.50;;;;;;5055975;28;19928;-78
2023/08/17 08:57:44;;;;;;;;;;;21.60;91.50;;;;;;5059555;28;19935;-79
2023/08/17 09:00:12;;;;;;;;;;;21.60;91.50;;;;;;5060435;28;19932;-77
2023/08/17 09:02:39;;;;;;;;;;;21.60;91.50;;;;;;5061370;28;19935;-80
2023/08/17 09:05:09;;;;;;;;;;;21.60;91.40;;;;;;5064640;28;20048;-78
2023/08/17 09:07:36;;;;;;;;;;;21.60;91.50;;;;;;5062365;28;19928;-80
2023/08/17 09:10:03;;;;;;;;;;;21.60;91.40;;;;;;5061412;28;19933;-77
2023/08/17 09:12:30;;;;;;;;;;;21.60;91.40;;;;;;5064209;28;19932;-79
2023/08/17 09:14:57;;;;;;;;;;;21.70;91.40;;;;;;5062116;28;19932;-80
2023/08/17 09:17:23;;;;;;;;;;;21.70;91.30;;;;;;5062781;28;20364;-80
2023/08/17 09:19:50;;;;;;;;;;;21.70;91.40;;;;;;5057587;28;19933;-81
2023/08/17 09:22:22;;;;;;;;;;;21.70;91.40;;;;;;5059201;28;19928;-80
2023/08/17 09:24:49;;;;;;;;;;;21.70;91.40;;;;;;5057450;28;20476;-80
2023/08/17 09:27:15;;;;;;;;;;;21.70;91.30;;;;;;5060573;28;19935;-80
2023/08/17 09:29:45;;;;;;;;;;;21.80;91.30;;;;;;5061914;28;19932;-79
2023/08/17 09:32:12;;;;;;;;;;;21.80;91.40;;;;;;5058498;28;19936;-80
2023/08/17 09:34:38;;;;;;;;;;;21.80;91.40;;;;;;5063099;28;19933;-80
2023/08/17 09:37:05;;;;;;;;;;;21.80;91.40;;;;;;5059391;28;19932;-79
2023/08/17 09:39:33;;;;;;;;;;;21.80;91.40;;;;;;5059230;28;19936;-79
2023/08/17 09:42:00;;;;;;;;;;;21.90;91.50;;;;;;5058151;28;20118;-79
2023/08/17 09:44:26;;;;;;;;;;;22.00;91.50;;;;;;5058044;28;19928;-79
2023/08/17 09:46:56;;;;;;;;;;;21.90;91.50;;;;;;5059935;28;20447;-81
2023/08/17 09:49:23;;;;;;;;;;;22.00;91.40;;;;;;5059969;28;19997;-80
2023/08/17 09:51:52;;;;;;;;;;;22.00;91.40;;;;;;5060669;28;19936;-80
2023/08/17 09:54:22;;;;;;;;;;;22.10;91.40;;;;;;5060196;28;19935;-81
2023/08/17 09:56:51;;;;;;;;;;;22.10;91.40;;;;;;5059889;28;20011;-81
2023/08/17 09:59:17;;;;;;;;;;;22.20;91.40;;;;;;5060812;28;19932;-81
2023/08/17 10:01:44;;;;;;;;;;;22.20;91.30;;;;;;5055824;28;19935;-81
2023/08/17 10:04:13;;;;;;;;;;;22.30;91.20;;;;;;5058356;28;20293;-79
2023/08/17 10:06:40;;;;;;;;;;;22.40;91.10;;;;;;5059641;28;19937;-80
2023/08/17 10:09:07;;;;;;;;;;;22.40;91.10;;;;;;5059864;28;19932;-80
2023/08/17 10:11:35;;;;;;;;;;;22.50;91.00;;;;;;5058659;28;19928;-79
2023/08/17 10:14:08;;;;;;;;;;;22.60;90.90;;;;;;5057217;28;19936;-81
2023/08/17 10:16:39;;;;;;;;;;;22.70;90.80;;;;;;5056899;28;20028;-80
2023/08/17 10:19:07;;;;;;;;;;;22.70;90.70;;;;;;5058580;28;19929;-80
2023/08/17 10:21:37;;;;;;;;;;;22.70;90.60;;;;;;5059607;28;20043;-80
2023/08/17 10:24:04;;;;;;;;;;;22.80;90.50;;;;;;5056169;28;19936;-80
2023/08/17 10:26:31;;;;;;;;;;;22.90;90.40;;;;;;5056588;28;19928;-81
2023/08/17 10:28:58;;;;;;;;;;;23.00;90.30;;;;;;5056050;28;19936;-80
2023/08/17 10:31:26;;;;;;;;;;;23.00;90.20;;;;;;5054685;28;19939;-79
2023/08/17 10:33:52;;;;;;;;;;;23.10;90.10;;;;;;5052767;28;19939;-80
2023/08/17 10:36:20;;;;;;;;;;;23.10;90.00;;;;;;5056659;28;19944;-80
2023/08/17 10:38:46;;;;;;;;;;;23.20;90.00;;;;;;5057249;28;19936;-81
2023/08/17 10:41:14;;;;;;;;;;;23.30;90.00;;;;;;5053139;28;19954;-81
2023/08/17 10:43:53;;;;;;;;;;;23.40;90.00;;;;;;5062181;28;19928;-80
2023/08/17 10:46:20;;;;;;;;;;;23.40;89.80;;;;;;5059380;28;19954;-81
2023/08/17 10:48:48;;;;;;;;;;;23.50;89.60;;;;;;5062649;28;19939;-79
2023/08/17 10:51:16;;;;;;;;;;;23.60;89.30;;;;;;5061574;28;19935;-80
2023/08/17 10:53:44;;;;;;;;;;;23.60;88.90;;;;;;5062034;28;19928;-80
2023/08/17 10:56:12;;;;;;;;;;;23.70;88.60;;;;;;5058939;28;20545;-79
2023/08/17 10:58:39;;;;;;;;;;;23.80;88.40;;;;;;5061588;28;20312;-79
2023/08/17 11:01:05;;;;;;;;;;;23.90;88.20;;;;;;5052082;28;20039;-80
2023/08/17 11:03:33;;;;;;;;;;;24.00;88.10;;;;;;5060055;28;19990;-81
2023/08/17 11:06:14;;;;;;;;;;;24.00;87.90;;;;;;5059579;28;20309;-81
2023/08/17 11:08:52;;;;;;;;;;;24.00;87.50;;;;;;5057686;28;21285;-80
2023/08/17 11:11:20;;;;;;;;;;;24.00;87.60;;;;;;5057743;28;19936;-81
2023/08/17 11:13:48;;;;;;;;;;;24.10;87.40;;;;;;5061398;28;19932;-80
2023/08/17 11:16:15;;;;;;;;;;;24.10;87.20;;;;;;5056792;28;19928;-80
2023/08/17 11:18:42;;;;;;;;;;;24.10;87.30;;;;;;5059378;28;19928;-79
2023/08/17 11:21:10;;;;;;;;;;;24.10;87.20;;;;;;5055300;28;20356;-80
2023/08/17 11:23:37;;;;;;;;;;;24.20;87.10;;;;;;5056245;28;19936;-80
2023/08/17 11:26:04;;;;;;;;;;;24.30;87.00;;;;;;5056090;28;19939;-80
2023/08/17 11:28:33;;;;;;;;;;;24.30;87.60;;;;;;5054572;28;19928;-80
2023/08/17 11:31:00;;;;;;;;;;;24.40;86.70;;;;;;5051932;28;20047;-81
2023/08/17 11:33:26;;;;;;;;;;;24.50;86.20;;;;;;5049895;28;19938;-81
2023/08/17 11:35:54;;;;;;;;;;;24.60;86.20;;;;;;5055903;28;19994;-79
2023/08/17 11:38:22;;;;;;;;;;;24.60;86.20;;;;;;5062371;28;19947;-80
2023/08/17 11:40:49;;;;;;;;;;;24.70;85.70;;;;;;5059552;28;19929;-81
2023/08/17 11:43:16;;;;;;;;;;;24.80;85.60;;;;;;5054140;28;19932;-81
2023/08/17 11:45:42;;;;;;;;;;;24.70;85.50;;;;;;5054796;28;20033;-81
2023/08/17 11:48:09;;;;;;;;;;;24.80;85.50;;;;;;5058057;28;19928;-82
2023/08/17 11:50:36;;;;;;;;;;;24.80;85.40;;;;;;5061453;28;19968;-81
2023/08/17 11:53:04;;;;;;;;;;;24.80;85.50;;;;;;5058833;28;19980;-82
2023/08/17 11:55:32;;;;;;;;;;;24.90;85.40;;;;;;5057065;28;19928;-82
2023/08/17 11:57:58;;;;;;;;;;;24.80;85.60;;;;;;5056248;28;19975;-82
2023/08/17 12:00:25;;;;;;;;;;;24.80;85.90;;;;;;5057578;28;19939;-81
2023/08/17 12:02:53;;;;;;;;;;;24.80;86.00;;;;;;5056569;28;20412;-81
2023/08/17 12:05:20;;;;;;;;;;;24.70;86.20;;;;;;5058717;28;19936;-82
2023/08/17 12:07:46;;;;;;;;;;;24.70;86.30;;;;;;5059680;28;19935;-82
2023/08/17 12:10:13;;;;;;;;;;;24.70;86.40;;;;;;5057629;28;19933;-81
2023/08/17 12:12:41;;;;;;;;;;;24.80;86.70;;;;;;5060811;28;19939;-82
2023/08/17 12:15:10;;;;;;;;;;;24.70;86.60;;;;;;5059946;28;19932;-82
2023/08/17 12:17:37;;;;;;;;;;;24.70;86.80;;;;;;5063113;28;20757;-82
2023/08/17 12:20:03;;;;;;;;;;;24.70;86.80;;;;;;5059724;28;20808;-82
2023/08/17 12:22:30;;;;;;;;;;;24.70;86.90;;;;;;5057326;28;19932;-81
2023/08/17 12:24:56;;;;;;;;;;;24.70;87.00;;;;;;5059270;28;19935;-82
2023/08/17 12:27:24;;;;;;;;;;;24.70;87.10;;;;;;5053736;28;19936;-82
2023/08/17 12:29:52;;;;;;;;;;;24.70;87.00;;;;;;5061685;28;20563;-82
2023/08/17 12:32:19;;;;;;;;;;;24.70;86.90;;;;;;5055948;28;19932;-82
2023/08/17 12:34:46;;;;;;;;;;;24.70;87.00;;;;;;5061451;28;20761;-81
2023/08/17 12:37:13;;;;;;;;;;;24.70;87.10;;;;;;5062168;28;19928;-82
2023/08/17 12:39:39;;;;;;;;;;;24.70;87.20;;;;;;5060478;28;19933;-82
2023/08/17 12:42:07;;;;;;;;;;;24.70;87.10;;;;;;5055776;28;19940;-82
2023/08/17 12:44:33;;;;;;;;;;;24.70;87.00;;;;;;5058567;28;19929;-82
2023/08/17 12:47:01;;;;;;;;;;;24.70;86.90;;;;;;5059273;28;19928;-82
2023/08/17 12:49:28;;;;;;;;;;;24.80;86.80;;;;;;5058748;28;19932;-82
2023/08/17 12:51:54;;;;;;;;;;;24.80;86.70;;;;;;5060078;28;19929;-81
2023/08/17 12:54:21;;;;;;;;;;;24.80;86.60;;;;;;5055318;28;19929;-79
2023/08/17 12:56:47;;;;;;;;;;;24.90;86.60;;;;;;5054779;28;20423;-78
2023/08/17 12:59:14;;;;;;;;;;;24.90;86.50;;;;;;5053843;28;19955;-79
2023/08/17 13:01:41;;;;;;;;;;;24.90;86.50;;;;;;5054996;28;19936;-78
2023/08/17 13:04:09;;;;;;;;;;;24.90;86.40;;;;;;5056810;28;19930;-78
2023/08/17 13:06:36;;;;;;;;;;;25.00;86.30;;;;;;5059145;28;19928;-79
2023/08/17 13:09:02;;;;;;;;;;;25.10;86.10;;;;;;5060716;28;19951;-79
2023/08/17 13:11:29;;;;;;;;;;;25.10;86.00;;;;;;5059648;28;19977;-78
2023/08/17 13:13:55;;;;;;;;;;;25.10;85.80;;;;;;5055583;28;19935;-78
2023/08/17 13:16:22;;;;;;;;;;;25.20;85.70;;;;;;5052714;28;20385;-79
2023/08/17 13:18:49;;;;;;;;;;;25.20;85.60;;;;;;5058238;28;19976;-78
2023/08/17 13:21:18;;;;;;;;;;;25.30;85.50;;;;;;5058465;28;19928;-78
2023/08/17 13:23:44;;;;;;;;;;;25.30;85.40;;;;;;5058232;28;20041;-78
2023/08/17 13:26:11;;;;;;;;;;;25.40;85.30;;;;;;5057028;28;19940;-79
2023/08/17 13:28:37;;;;;;;;;;;25.40;85.20;;;;;;5059676;28;19951;-78
2023/08/17 13:31:04;;;;;;;;;;;25.40;85.00;;;;;;5054870;28;19932;-78
2023/08/17 13:33:30;;;;;;;;;;;25.40;84.80;;;;;;5055277;28;19935;-78
2023/08/17 13:35:57;;;;;;;;;;;25.50;84.90;;;;;;5055460;28;19929;-79
2023/08/17 13:38:25;;;;;;;;;;;25.50;84.80;;;;;;5057422;28;19981;-78
2023/08/17 13:40:51;;;;;;;;;;;25.50;84.60;;;;;;5054982;28;19936;-79
2023/08/17 13:43:18;;;;;;;;;;;25.50;84.60;;;;;;5054238;28;19939;-80
2023/08/17 13:45:44;;;;;;;;;;;25.60;84.70;;;;;;5053236;28;19933;-79
2023/08/17 13:48:11;;;;;;;;;;;25.60;84.80;;;;;;5056767;28;19940;-79
2023/08/17 13:50:38;;;;;;;;;;;25.60;84.90;;;;;;5056305;28;19928;-78
2023/08/17 13:53:05;;;;;;;;;;;25.60;85.10;;;;;;5054629;28;19939;-80
2023/08/17 13:55:33;;;;;;;;;;;25.60;85.20;;;;;;5056251;28;19932;-79
2023/08/17 13:58:00;;;;;;;;;;;25.70;85.30;;;;;;5056618;28;20436;-79
2023/08/17 14:00:27;;;;;;;;;;;25.70;85.20;;;;;;5053265;28;19928;-78
2023/08/17 14:02:54;;;;;;;;;;;25.70;85.00;;;;;;5054170;28;20251;-79
2023/08/17 14:05:20;;;;;;;;;;;25.70;84.90;;;;;;5056517;28;19932;-79
2023/08/17 14:07:47;;;;;;;;;;;25.70;84.80;;;;;;5057717;28;19928;-79
2023/08/17 14:10:14;;;;;;;;;;;25.80;84.90;;;;;;5055876;28;19935;-80
2023/08/17 14:12:42;;;;;;;;;;;25.80;84.70;;;;;;5057769;28;19935;-79
2023/08/17 14:15:09;;;;;;;;;;;25.80;84.50;;;;;;5057418;28;19935;-79
2023/08/17 14:17:35;;;;;;;;;;;25.80;84.40;;;;;;5060222;28;19928;-79